WAT508 NFFN-NFTF
Flight info
| Callsign | WAT508 |
|---|---|
| Flight time | 1h 12m |
| Altitude | 37000 |
| Route | ECHO NA B598 HOBAT HOBAT1A |
| Aircraft | B738/M-SDE2E3FGHIRWXY/LB1 |
Departure
| Time | 2026-04-23 20:48 |
|---|---|
| Airport | Nadi International Airport (NFFN) |
Arrival
| Time | 2026-04-23 22:00 |
|---|---|
| Airport | Fua'amotu International Airport (NFTF) |
| Time | Latitude | Longitude | Altitude | Speed | Heading |
|---|---|---|---|---|---|
| 2026-04-23 20:13 | -17.75200 | 177.45026 | 53 ft | 0 kts | 104° |
| 2026-04-23 20:24 | -17.75200 | 177.45024 | 51 ft | 2 kts | 104° |
| 2026-04-23 20:24 | -17.75194 | 177.44998 | 51 ft | 4 kts | 99° |
| 2026-04-23 20:25 | -17.75191 | 177.44970 | 53 ft | 4 kts | 87° |
| 2026-04-23 20:25 | -17.75196 | 177.44944 | 48 ft | 4 kts | 47° |
| 2026-04-23 20:25 | -17.75208 | 177.44937 | 53 ft | 1 kts | 12° |
| 2026-04-23 20:25 | -17.75210 | 177.44936 | 51 ft | 0 kts | 12° |
| 2026-04-23 20:42 | -17.75175 | 177.44942 | 51 ft | 9 kts | 4° |
| 2026-04-23 20:42 | -17.75106 | 177.44954 | 53 ft | 11 kts | 3° |
| 2026-04-23 20:42 | -17.75044 | 177.44911 | 48 ft | 11 kts | 298° |
| 2026-04-23 20:42 | -17.75038 | 177.44892 | 54 ft | 0 kts | 281° |
| 2026-04-23 20:47 | -17.75037 | 177.44886 | 54 ft | 6 kts | 279° |
| 2026-04-23 20:47 | -17.75016 | 177.44795 | 48 ft | 16 kts | 295° |
| 2026-04-23 20:47 | -17.75016 | 177.44733 | 49 ft | 3 kts | 210° |
| 2026-04-23 20:48 | -17.75045 | 177.44714 | 53 ft | 33 kts | 212° |
| 2026-04-23 20:48 | -17.75522 | 177.44328 | 49 ft | 136 kts | 218° |
| 2026-04-23 20:48 | -17.76424 | 177.43616 | 734 ft | 157 kts | 216° |
| 2026-04-23 20:48 | -17.77375 | 177.43047 | 1957 ft | 171 kts | 191° |
| 2026-04-23 20:49 | -17.78630 | 177.43218 | 2719 ft | 196 kts | 141° |
| 2026-04-23 20:49 | -17.79392 | 177.44387 | 3748 ft | 200 kts | 112° |
| 2026-04-23 20:49 | -17.79855 | 177.45738 | 4881 ft | 201 kts | 97° |
| 2026-04-23 20:49 | -17.79858 | 177.47288 | 5242 ft | 227 kts | 89° |
| 2026-04-23 20:50 | -17.79891 | 177.49010 | 5736 ft | 241 kts | 92° |
| 2026-04-23 20:50 | -17.80018 | 177.50790 | 6464 ft | 248 kts | 95° |
| 2026-04-23 20:50 | -17.80225 | 177.52650 | 7032 ft | 267 kts | 97° |
| 2026-04-23 20:50 | -17.80510 | 177.54605 | 7891 ft | 274 kts | 99° |
| 2026-04-23 20:51 | -17.80849 | 177.56589 | 8809 ft | 278 kts | 100° |
| 2026-04-23 20:51 | -17.81232 | 177.58591 | 9722 ft | 282 kts | 101° |
| 2026-04-23 20:51 | -17.81648 | 177.60613 | 10430 ft | 294 kts | 102° |
| 2026-04-23 20:51 | -17.82122 | 177.62813 | 10639 ft | 322 kts | 102° |
| 2026-04-23 20:52 | -17.82654 | 177.65174 | 11060 ft | 341 kts | 103° |
| 2026-04-23 20:52 | -17.83219 | 177.67626 | 11738 ft | 349 kts | 103° |
| 2026-04-23 20:52 | -17.83802 | 177.70113 | 12513 ft | 353 kts | 103° |
| 2026-04-23 20:52 | -17.84396 | 177.72631 | 13270 ft | 358 kts | 103° |
| 2026-04-23 20:53 | -17.85004 | 177.75191 | 14000 ft | 364 kts | 103° |
| 2026-04-23 20:53 | -17.85624 | 177.77794 | 14703 ft | 370 kts | 103° |
| 2026-04-23 20:53 | -17.86172 | 177.80093 | 15324 ft | 374 kts | 103° |
| 2026-04-23 20:53 | -17.86808 | 177.82763 | 15969 ft | 379 kts | 103° |
| 2026-04-23 20:54 | -17.87453 | 177.85467 | 16623 ft | 384 kts | 103° |
| 2026-04-23 20:54 | -17.88103 | 177.88198 | 17256 ft | 389 kts | 103° |
| 2026-04-23 20:54 | -17.88764 | 177.90973 | 17834 ft | 394 kts | 103° |
| 2026-04-23 20:54 | -17.89434 | 177.93786 | 18464 ft | 398 kts | 103° |
| 2026-04-23 20:55 | -17.90109 | 177.96621 | 19033 ft | 403 kts | 103° |
| 2026-04-23 20:55 | -17.90793 | 177.99495 | 19617 ft | 407 kts | 102° |
| 2026-04-23 20:55 | -17.91249 | 178.01412 | 19962 ft | 411 kts | 102° |
| 2026-04-23 20:55 | -17.92179 | 178.05327 | 20679 ft | 416 kts | 102° |
| 2026-04-23 20:56 | -17.92645 | 178.07287 | 21015 ft | 419 kts | 102° |
| 2026-04-23 20:56 | -17.93352 | 178.10268 | 21525 ft | 423 kts | 102° |
| 2026-04-23 20:56 | -17.94067 | 178.13281 | 21995 ft | 427 kts | 102° |
| 2026-04-23 20:56 | -17.94787 | 178.16320 | 22502 ft | 430 kts | 102° |
| 2026-04-23 20:57 | -17.95512 | 178.19382 | 22960 ft | 434 kts | 102° |
| 2026-04-23 20:57 | -17.96243 | 178.22472 | 23398 ft | 438 kts | 102° |
| 2026-04-23 20:57 | -17.96979 | 178.25586 | 23833 ft | 441 kts | 102° |
| 2026-04-23 20:57 | -17.97720 | 178.28724 | 24242 ft | 445 kts | 102° |
| 2026-04-23 20:58 | -17.98467 | 178.31890 | 24675 ft | 448 kts | 102° |
| 2026-04-23 20:58 | -17.99220 | 178.35073 | 25117 ft | 450 kts | 102° |
| 2026-04-23 20:58 | -17.99976 | 178.38279 | 25531 ft | 453 kts | 102° |
| 2026-04-23 20:58 | -18.00734 | 178.41497 | 25888 ft | 456 kts | 102° |
| 2026-04-23 20:59 | -18.01501 | 178.44748 | 26248 ft | 459 kts | 102° |
| 2026-04-23 20:59 | -18.02271 | 178.48013 | 26636 ft | 461 kts | 102° |
| 2026-04-23 20:59 | -18.03043 | 178.51297 | 26985 ft | 464 kts | 102° |
| 2026-04-23 20:59 | -18.03838 | 178.54597 | 27318 ft | 468 kts | 105° |
| 2026-04-23 21:00 | -18.04951 | 178.57777 | 27657 ft | 471 kts | 114° |
| 2026-04-23 21:00 | -18.06504 | 178.60821 | 28010 ft | 474 kts | 118° |
| 2026-04-23 21:00 | -18.08151 | 178.63827 | 28334 ft | 476 kts | 119° |
| 2026-04-23 21:00 | -18.09822 | 178.66842 | 28649 ft | 479 kts | 119° |
| 2026-04-23 21:01 | -18.11496 | 178.69883 | 28988 ft | 480 kts | 119° |
| 2026-04-23 21:01 | -18.13156 | 178.72936 | 29300 ft | 483 kts | 118° |
| 2026-04-23 21:01 | -18.14815 | 178.76015 | 29566 ft | 485 kts | 118° |
| 2026-04-23 21:01 | -18.16477 | 178.79115 | 29843 ft | 488 kts | 118° |
| 2026-04-23 21:02 | -18.18143 | 178.82231 | 30136 ft | 490 kts | 118° |
| 2026-04-23 21:02 | -18.19813 | 178.85357 | 30426 ft | 491 kts | 118° |
| 2026-04-23 21:02 | -18.21488 | 178.88490 | 30704 ft | 493 kts | 118° |
| 2026-04-23 21:02 | -18.23177 | 178.91649 | 30963 ft | 495 kts | 118° |
| 2026-04-23 21:03 | -18.24863 | 178.94805 | 31225 ft | 497 kts | 118° |
| 2026-04-23 21:03 | -18.26555 | 178.97990 | 31589 ft | 496 kts | 118° |
| 2026-04-23 21:03 | -18.28207 | 179.01114 | 32010 ft | 494 kts | 118° |
| 2026-04-23 21:03 | -18.29878 | 179.04276 | 32434 ft | 492 kts | 118° |
| 2026-04-23 21:04 | -18.31538 | 179.07420 | 32789 ft | 491 kts | 118° |
| 2026-04-23 21:04 | -18.33197 | 179.10563 | 33119 ft | 492 kts | 118° |
| 2026-04-23 21:04 | -18.34858 | 179.13709 | 33477 ft | 491 kts | 118° |
| 2026-04-23 21:04 | -18.36518 | 179.16852 | 33874 ft | 489 kts | 118° |
| 2026-04-23 21:05 | -18.38169 | 179.19979 | 34267 ft | 488 kts | 118° |
| 2026-04-23 21:05 | -18.39817 | 179.23099 | 34622 ft | 487 kts | 118° |
| 2026-04-23 21:05 | -18.41464 | 179.26218 | 34917 ft | 488 kts | 119° |
| 2026-04-23 21:05 | -18.43114 | 179.29343 | 35278 ft | 486 kts | 119° |
| 2026-04-23 21:06 | -18.44748 | 179.32444 | 35665 ft | 484 kts | 119° |
| 2026-04-23 21:06 | -18.46378 | 179.35540 | 35982 ft | 484 kts | 119° |
| 2026-04-23 21:06 | -18.48011 | 179.38639 | 36226 ft | 484 kts | 119° |
| 2026-04-23 21:06 | -18.49602 | 179.41659 | 36490 ft | 485 kts | 119° |
| 2026-04-23 21:07 | -18.51211 | 179.44714 | 36788 ft | 484 kts | 119° |
| 2026-04-23 21:07 | -18.52842 | 179.47812 | 37075 ft | 483 kts | 119° |
| 2026-04-23 21:07 | -18.56083 | 179.53974 | 37041 ft | 479 kts | 119° |
| 2026-04-23 21:08 | -18.59278 | 179.60057 | 37043 ft | 472 kts | 119° |
| 2026-04-23 21:08 | -18.62460 | 179.66119 | 37052 ft | 473 kts | 119° |
| 2026-04-23 21:09 | -18.65652 | 179.72207 | 37049 ft | 474 kts | 119° |
| 2026-04-23 21:09 | -18.68850 | 179.78310 | 37049 ft | 476 kts | 119° |
| 2026-04-23 21:10 | -18.72032 | 179.84390 | 37040 ft | 477 kts | 119° |
| 2026-04-23 21:10 | -18.75233 | 179.90510 | 37039 ft | 477 kts | 119° |
| 2026-04-23 21:11 | -18.78447 | 179.96656 | 37045 ft | 477 kts | 119° |
| 2026-04-23 21:11 | -18.81646 | -179.97201 | 37046 ft | 477 kts | 118° |
| 2026-04-23 21:12 | -18.84817 | -179.91045 | 37107 ft | 476 kts | 118° |
| 2026-04-23 21:12 | -18.87980 | -179.84896 | 37101 ft | 477 kts | 118° |
| 2026-04-23 21:13 | -18.91149 | -179.78744 | 37103 ft | 476 kts | 118° |
| 2026-04-23 21:13 | -18.94318 | -179.72595 | 37094 ft | 476 kts | 118° |
| 2026-04-23 21:14 | -18.97460 | -179.66494 | 37105 ft | 476 kts | 118° |
| 2026-04-23 21:14 | -19.00630 | -179.60330 | 37101 ft | 477 kts | 118° |
| 2026-04-23 21:15 | -19.03794 | -179.54170 | 37099 ft | 477 kts | 118° |
| 2026-04-23 21:15 | -19.06957 | -179.48010 | 37095 ft | 477 kts | 118° |
| 2026-04-23 21:16 | -19.10120 | -179.41840 | 37098 ft | 477 kts | 118° |
| 2026-04-23 21:16 | -19.13278 | -179.35676 | 37099 ft | 477 kts | 118° |
| 2026-04-23 21:17 | -19.16433 | -179.29509 | 37104 ft | 476 kts | 118° |
| 2026-04-23 21:17 | -19.19585 | -179.23342 | 37107 ft | 476 kts | 118° |
| 2026-04-23 21:18 | -19.22716 | -179.17211 | 37097 ft | 477 kts | 118° |
| 2026-04-23 21:18 | -19.25869 | -179.11034 | 37099 ft | 476 kts | 118° |
| 2026-04-23 21:19 | -19.29012 | -179.04864 | 37096 ft | 476 kts | 118° |
| 2026-04-23 21:19 | -19.32159 | -178.98683 | 37099 ft | 477 kts | 118° |
| 2026-04-23 21:20 | -19.35299 | -178.92508 | 37100 ft | 477 kts | 118° |
| 2026-04-23 21:20 | -19.38444 | -178.86318 | 37102 ft | 477 kts | 118° |
| 2026-04-23 21:21 | -19.41585 | -178.80131 | 37105 ft | 477 kts | 118° |
| 2026-04-23 21:21 | -19.44724 | -178.73939 | 37093 ft | 477 kts | 118° |
| 2026-04-23 21:22 | -19.47860 | -178.67750 | 37100 ft | 476 kts | 118° |
| 2026-04-23 21:22 | -19.50833 | -178.61876 | 37102 ft | 476 kts | 118° |
| 2026-04-23 21:23 | -19.53960 | -178.55697 | 37099 ft | 477 kts | 118° |
| 2026-04-23 21:23 | -19.57095 | -178.49491 | 37098 ft | 477 kts | 118° |
| 2026-04-23 21:24 | -19.60225 | -178.43283 | 37103 ft | 478 kts | 118° |
| 2026-04-23 21:24 | -19.63359 | -178.37068 | 37108 ft | 478 kts | 118° |
| 2026-04-23 21:25 | -19.66499 | -178.30843 | 37096 ft | 478 kts | 118° |
| 2026-04-23 21:25 | -19.69642 | -178.24613 | 37099 ft | 479 kts | 118° |
| 2026-04-23 21:26 | -19.72791 | -178.18372 | 37122 ft | 479 kts | 118° |
| 2026-04-23 21:26 | -19.75933 | -178.12127 | 37115 ft | 480 kts | 118° |
| 2026-04-23 21:27 | -19.79079 | -178.05863 | 37097 ft | 481 kts | 118° |
| 2026-04-23 21:27 | -19.82210 | -177.99633 | 37102 ft | 481 kts | 118° |
| 2026-04-23 21:28 | -19.85355 | -177.93361 | 37109 ft | 482 kts | 118° |
| 2026-04-23 21:28 | -19.88514 | -177.87057 | 37112 ft | 482 kts | 118° |
| 2026-04-23 21:29 | -19.91670 | -177.80757 | 37114 ft | 483 kts | 118° |
| 2026-04-23 21:29 | -19.94818 | -177.74457 | 37114 ft | 483 kts | 118° |
| 2026-04-23 21:30 | -19.97976 | -177.68141 | 36907 ft | 486 kts | 118° |
| 2026-04-23 21:30 | -19.99561 | -177.64963 | 36400 ft | 485 kts | 118° |
| 2026-04-23 21:30 | -20.01135 | -177.61819 | 35927 ft | 481 kts | 118° |
| 2026-04-23 21:31 | -20.02711 | -177.58701 | 35549 ft | 476 kts | 118° |
| 2026-04-23 21:31 | -20.04278 | -177.55622 | 35116 ft | 472 kts | 118° |
| 2026-04-23 21:31 | -20.05844 | -177.52553 | 34698 ft | 468 kts | 118° |
| 2026-04-23 21:31 | -20.07392 | -177.49524 | 34285 ft | 464 kts | 118° |
| 2026-04-23 21:32 | -20.08892 | -177.46582 | 33886 ft | 460 kts | 118° |
| 2026-04-23 21:32 | -20.10409 | -177.43600 | 33468 ft | 457 kts | 118° |
| 2026-04-23 21:32 | -20.11915 | -177.40635 | 33056 ft | 454 kts | 118° |
| 2026-04-23 21:32 | -20.13411 | -177.37687 | 32649 ft | 450 kts | 118° |
| 2026-04-23 21:33 | -20.14899 | -177.34760 | 32240 ft | 447 kts | 118° |
| 2026-04-23 21:33 | -20.16376 | -177.31853 | 31836 ft | 444 kts | 118° |
| 2026-04-23 21:33 | -20.17840 | -177.28970 | 31442 ft | 441 kts | 118° |
| 2026-04-23 21:33 | -20.19294 | -177.26104 | 31039 ft | 439 kts | 118° |
| 2026-04-23 21:34 | -20.20740 | -177.23249 | 30642 ft | 436 kts | 118° |
| 2026-04-23 21:34 | -20.22174 | -177.20416 | 30241 ft | 433 kts | 118° |
| 2026-04-23 21:34 | -20.23597 | -177.17602 | 29856 ft | 430 kts | 117° |
| 2026-04-23 21:34 | -20.25009 | -177.14808 | 29458 ft | 427 kts | 117° |
| 2026-04-23 21:35 | -20.26417 | -177.12024 | 29050 ft | 424 kts | 117° |
| 2026-04-23 21:35 | -20.27811 | -177.09269 | 28651 ft | 422 kts | 118° |
| 2026-04-23 21:35 | -20.29196 | -177.06529 | 28247 ft | 419 kts | 118° |
| 2026-04-23 21:35 | -20.30569 | -177.03809 | 27850 ft | 416 kts | 117° |
| 2026-04-23 21:36 | -20.33295 | -176.98400 | 27055 ft | 411 kts | 118° |
| 2026-04-23 21:36 | -20.34626 | -176.95762 | 26658 ft | 408 kts | 118° |
| 2026-04-23 21:36 | -20.35965 | -176.93106 | 26275 ft | 405 kts | 118° |
| 2026-04-23 21:37 | -20.37295 | -176.90465 | 25884 ft | 403 kts | 118° |
| 2026-04-23 21:37 | -20.38617 | -176.87840 | 25500 ft | 400 kts | 118° |
| 2026-04-23 21:37 | -20.39933 | -176.85226 | 25108 ft | 398 kts | 118° |
| 2026-04-23 21:37 | -20.41240 | -176.82628 | 24724 ft | 396 kts | 118° |
| 2026-04-23 21:38 | -20.42537 | -176.80049 | 24341 ft | 393 kts | 118° |
| 2026-04-23 21:38 | -20.43824 | -176.77489 | 23957 ft | 391 kts | 118° |
| 2026-04-23 21:38 | -20.45102 | -176.74944 | 23577 ft | 389 kts | 118° |
| 2026-04-23 21:38 | -20.46374 | -176.72410 | 23204 ft | 386 kts | 118° |
| 2026-04-23 21:39 | -20.47637 | -176.69892 | 22830 ft | 384 kts | 118° |
| 2026-04-23 21:39 | -20.48469 | -176.68234 | 22583 ft | 382 kts | 118° |
| 2026-04-23 21:39 | -20.50123 | -176.64935 | 22090 ft | 378 kts | 118° |
| 2026-04-23 21:39 | -20.51358 | -176.62472 | 21722 ft | 376 kts | 118° |
| 2026-04-23 21:40 | -20.52587 | -176.60019 | 21360 ft | 373 kts | 118° |
| 2026-04-23 21:40 | -20.53805 | -176.57588 | 20994 ft | 370 kts | 118° |
| 2026-04-23 21:40 | -20.55012 | -176.55176 | 20629 ft | 368 kts | 118° |
| 2026-04-23 21:40 | -20.55809 | -176.53582 | 20396 ft | 366 kts | 118° |
| 2026-04-23 21:41 | -20.57005 | -176.51193 | 20036 ft | 363 kts | 118° |
| 2026-04-23 21:41 | -20.58189 | -176.48825 | 19680 ft | 361 kts | 118° |
| 2026-04-23 21:41 | -20.59368 | -176.46468 | 19319 ft | 358 kts | 118° |
| 2026-04-23 21:41 | -20.60536 | -176.44132 | 18967 ft | 355 kts | 118° |
| 2026-04-23 21:42 | -20.62085 | -176.41033 | 18508 ft | 352 kts | 118° |
| 2026-04-23 21:42 | -20.62847 | -176.39508 | 18267 ft | 350 kts | 118° |
| 2026-04-23 21:42 | -20.63986 | -176.37228 | 17940 ft | 347 kts | 118° |
| 2026-04-23 21:42 | -20.65117 | -176.34959 | 17592 ft | 345 kts | 118° |
| 2026-04-23 21:43 | -20.66239 | -176.32706 | 17251 ft | 342 kts | 118° |
| 2026-04-23 21:43 | -20.67338 | -176.30459 | 16992 ft | 340 kts | 117° |
| 2026-04-23 21:43 | -20.68421 | -176.28202 | 16748 ft | 342 kts | 117° |
| 2026-04-23 21:43 | -20.69509 | -176.25924 | 16502 ft | 346 kts | 117° |
| 2026-04-23 21:44 | -20.70596 | -176.23647 | 16252 ft | 344 kts | 117° |
| 2026-04-23 21:44 | -20.71682 | -176.21373 | 15907 ft | 340 kts | 117° |
| 2026-04-23 21:44 | -20.72744 | -176.19152 | 15512 ft | 339 kts | 117° |
| 2026-04-23 21:44 | -20.73816 | -176.16913 | 15157 ft | 337 kts | 117° |
| 2026-04-23 21:45 | -20.74877 | -176.14696 | 14806 ft | 334 kts | 117° |
| 2026-04-23 21:45 | -20.75932 | -176.12494 | 14460 ft | 332 kts | 117° |
| 2026-04-23 21:45 | -20.76982 | -176.10304 | 14116 ft | 329 kts | 117° |
| 2026-04-23 21:45 | -20.78022 | -176.08133 | 13777 ft | 327 kts | 117° |
| 2026-04-23 21:46 | -20.79053 | -176.05981 | 13434 ft | 324 kts | 117° |
| 2026-04-23 21:46 | -20.80077 | -176.03845 | 13106 ft | 322 kts | 117° |
| 2026-04-23 21:46 | -20.81093 | -176.01729 | 12766 ft | 319 kts | 117° |
| 2026-04-23 21:46 | -20.82105 | -175.99617 | 12441 ft | 317 kts | 117° |
| 2026-04-23 21:47 | -20.83103 | -175.97531 | 12114 ft | 314 kts | 117° |
| 2026-04-23 21:47 | -20.84093 | -175.95455 | 11786 ft | 312 kts | 117° |
| 2026-04-23 21:47 | -20.85074 | -175.93399 | 11459 ft | 310 kts | 117° |
| 2026-04-23 21:47 | -20.85889 | -175.91691 | 11182 ft | 308 kts | 117° |
| 2026-04-23 21:48 | -20.86858 | -175.89660 | 10865 ft | 306 kts | 117° |
| 2026-04-23 21:48 | -20.87821 | -175.87644 | 10545 ft | 303 kts | 117° |
| 2026-04-23 21:48 | -20.88774 | -175.85645 | 10295 ft | 298 kts | 117° |
| 2026-04-23 21:48 | -20.89699 | -175.83702 | 10180 ft | 289 kts | 117° |
| 2026-04-23 21:49 | -20.90602 | -175.81807 | 10064 ft | 281 kts | 117° |
| 2026-04-23 21:49 | -20.91477 | -175.79968 | 9862 ft | 276 kts | 117° |
| 2026-04-23 21:49 | -20.92333 | -175.78170 | 9599 ft | 274 kts | 117° |
| 2026-04-23 21:49 | -20.93194 | -175.76360 | 9345 ft | 272 kts | 116° |
| 2026-04-23 21:50 | -20.94047 | -175.74569 | 9085 ft | 270 kts | 116° |
| 2026-04-23 21:50 | -20.94894 | -175.72790 | 8820 ft | 267 kts | 116° |
| 2026-04-23 21:50 | -20.95733 | -175.71023 | 8553 ft | 266 kts | 116° |
| 2026-04-23 21:50 | -20.96569 | -175.69265 | 8300 ft | 264 kts | 116° |
| 2026-04-23 21:51 | -20.97399 | -175.67519 | 8042 ft | 262 kts | 116° |
| 2026-04-23 21:51 | -20.98225 | -175.65781 | 7781 ft | 261 kts | 116° |
| 2026-04-23 21:51 | -20.99045 | -175.64054 | 7524 ft | 259 kts | 116° |
| 2026-04-23 21:51 | -20.99859 | -175.62340 | 7268 ft | 257 kts | 117° |
| 2026-04-23 21:52 | -21.00667 | -175.60636 | 7015 ft | 256 kts | 116° |
| 2026-04-23 21:52 | -21.01471 | -175.58943 | 6759 ft | 254 kts | 117° |
| 2026-04-23 21:52 | -21.02273 | -175.57256 | 6509 ft | 253 kts | 116° |
| 2026-04-23 21:52 | -21.03063 | -175.55590 | 6258 ft | 251 kts | 116° |
| 2026-04-23 21:53 | -21.03855 | -175.53920 | 6012 ft | 250 kts | 116° |
| 2026-04-23 21:53 | -21.04640 | -175.52265 | 5760 ft | 249 kts | 116° |
| 2026-04-23 21:53 | -21.05421 | -175.50618 | 5514 ft | 247 kts | 116° |
| 2026-04-23 21:53 | -21.06195 | -175.48984 | 5274 ft | 245 kts | 116° |
| 2026-04-23 21:54 | -21.06962 | -175.47363 | 5033 ft | 244 kts | 116° |
| 2026-04-23 21:54 | -21.07724 | -175.45751 | 4792 ft | 242 kts | 116° |
| 2026-04-23 21:54 | -21.08486 | -175.44145 | 4568 ft | 240 kts | 117° |
| 2026-04-23 21:54 | -21.09228 | -175.42578 | 4324 ft | 238 kts | 117° |
| 2026-04-23 21:55 | -21.09976 | -175.40997 | 4087 ft | 237 kts | 116° |
| 2026-04-23 21:55 | -21.10724 | -175.39420 | 3842 ft | 236 kts | 117° |
| 2026-04-23 21:55 | -21.11462 | -175.37862 | 3607 ft | 234 kts | 116° |
| 2026-04-23 21:55 | -21.12194 | -175.36309 | 3520 ft | 231 kts | 116° |
| 2026-04-23 21:56 | -21.12911 | -175.34791 | 3358 ft | 227 kts | 117° |
| 2026-04-23 21:56 | -21.13619 | -175.33286 | 3147 ft | 225 kts | 116° |
| 2026-04-23 21:56 | -21.14317 | -175.31802 | 2952 ft | 221 kts | 116° |
| 2026-04-23 21:56 | -21.15154 | -175.30475 | 2775 ft | 211 kts | 130° |
| 2026-04-23 21:57 | -21.15986 | -175.29250 | 2683 ft | 198 kts | 122° |
| 2026-04-23 21:57 | -21.16678 | -175.27996 | 2449 ft | 194 kts | 118° |
| 2026-04-23 21:57 | -21.17324 | -175.26740 | 2196 ft | 192 kts | 119° |
| 2026-04-23 21:57 | -21.17962 | -175.25531 | 1972 ft | 185 kts | 121° |
| 2026-04-23 21:58 | -21.18616 | -175.24360 | 1769 ft | 180 kts | 120° |
| 2026-04-23 21:58 | -21.19265 | -175.23236 | 1401 ft | 175 kts | 122° |
| 2026-04-23 21:58 | -21.19902 | -175.22179 | 1218 ft | 163 kts | 123° |
| 2026-04-23 21:58 | -21.20490 | -175.21145 | 1036 ft | 158 kts | 123° |
| 2026-04-23 21:59 | -21.21046 | -175.20177 | 949 ft | 148 kts | 123° |
| 2026-04-23 21:59 | -21.21589 | -175.19243 | 798 ft | 150 kts | 122° |
| 2026-04-23 21:59 | -21.22131 | -175.18298 | 639 ft | 151 kts | 121° |
| 2026-04-23 22:00 | -21.23257 | -175.16393 | 236 ft | 152 kts | 123° |
| 2026-04-23 22:00 | -21.23822 | -175.15450 | 111 ft | 146 kts | 120° |
| 2026-04-23 22:00 | -21.24287 | -175.14635 | 116 ft | 106 kts | 121° |
| 2026-04-23 22:00 | -21.24418 | -175.14341 | 119 ft | 19 kts | 57° |
| 2026-04-23 22:01 | -21.24365 | -175.14297 | 120 ft | 0 kts | 30° |
| 2026-04-23 22:01 | -21.24360 | -175.14294 | 120 ft | 4 kts | 31° |
| 2026-04-23 22:01 | -21.24302 | -175.14257 | 125 ft | 15 kts | 31° |
| 2026-04-23 22:01 | -21.24216 | -175.14279 | 118 ft | 16 kts | 289° |
| 2026-04-23 22:02 | -21.24197 | -175.14308 | 126 ft | 1 kts | 350° |
| 2026-04-23 22:02 | -21.24192 | -175.14302 | 117 ft | 1 kts | 50° |
| 2026-04-23 22:02 | -21.24192 | -175.14301 | 120 ft | 0 kts | 55° |
| 2026-04-23 22:15 | -21.24186 | -175.14286 | 120 ft | 0 kts | 246° |
| 2026-04-23 22:15 | -21.24198 | -175.14307 | 118 ft | 0 kts | 33° |